Time;durP1;ratioP1;P1;durP2;ratioP2;P2;SDS_P1;SDS_P2;PMS_P1;PMS_P2;Temp;Humidity;BMP_temperature;BMP_pressure;BME280_temperature;BME280_humidity;BME280_pressure;Samples;Min_cycle;Max_cycle;Signal;HPM_P1;HPM_P2
2022/06/08 00:00:07;;;;;;;6.63;1.85;;;;;;;17.63;100.00;101067.88;5064915;28;20524;-64
2022/06/08 00:02:32;;;;;;;4.05;1.60;;;;;;;17.69;100.00;101060.19;5063256;28;20032;-65
2022/06/08 00:04:59;;;;;;;3.65;1.90;;;;;;;17.77;100.00;101061.34;5063518;28;20409;-65
2022/06/08 00:07:24;;;;;;;6.38;2.00;;;;;;;17.74;100.00;101057.28;5043627;28;20449;-65
2022/06/08 00:09:49;;;;;;;3.85;2.10;;;;;;;17.81;100.00;101060.38;5051961;28;20025;-64
2022/06/08 00:12:15;;;;;;;6.72;2.00;;;;;;;17.79;100.00;101050.72;5041586;28;20111;-64
2022/06/08 00:14:41;;;;;;;5.57;1.88;;;;;;;17.82;100.00;101056.47;5043386;28;20087;-64
2022/06/08 00:17:08;;;;;;;6.13;1.98;;;;;;;17.75;100.00;101041.44;5026094;28;20093;-65
2022/06/08 00:19:34;;;;;;;5.88;2.22;;;;;;;17.74;100.00;101037.03;5025884;28;20033;-65
2022/06/08 00:21:59;;;;;;;6.15;2.13;;;;;;;17.73;100.00;101032.66;5051818;28;20047;-65
2022/06/08 00:24:25;;;;;;;5.50;2.20;;;;;;;17.72;100.00;101019.91;5061099;28;20366;-64
2022/06/08 00:26:51;;;;;;;4.68;2.03;;;;;;;17.68;100.00;101035.59;5063062;28;20051;-64
2022/06/08 00:29:17;;;;;;;4.20;1.95;;;;;;;17.70;100.00;101036.06;5060678;28;20024;-65
2022/06/08 00:31:42;;;;;;;5.60;2.30;;;;;;;17.70;100.00;101025.78;5064704;28;20044;-64
2022/06/08 00:34:08;;;;;;;6.38;2.08;;;;;;;17.62;100.00;101030.19;5064169;28;20140;-63
2022/06/08 00:36:34;;;;;;;5.28;2.30;;;;;;;17.67;100.00;101020.09;5040200;28;20032;-64
2022/06/08 00:38:59;;;;;;;6.15;2.13;;;;;;;17.62;100.00;101027.41;5040569;28;20029;-65
2022/06/08 00:41:48;;;;;;;5.95;2.10;;;;;;;17.61;100.00;101017.47;5040842;28;20091;-65
2022/06/08 00:44:22;;;;;;;7.35;2.28;;;;;;;17.57;100.00;101012.91;5040050;28;20124;-66
2022/06/08 00:46:51;;;;;;;4.18;2.20;;;;;;;17.56;100.00;101009.31;5041711;28;20036;-65
2022/06/08 00:49:29;;;;;;;5.85;2.38;;;;;;;17.44;100.00;101000.81;5042476;28;20025;-65
2022/06/08 00:51:57;;;;;;;7.78;2.67;;;;;;;17.40;100.00;100997.09;5039216;28;20027;-65
2022/06/08 00:54:28;;;;;;;9.65;2.80;;;;;;;17.36;100.00;100996.09;5038424;28;20053;-65
2022/06/08 00:57:00;;;;;;;5.95;2.72;;;;;;;17.36;100.00;100990.53;5041741;28;20037;-65
2022/06/08 00:59:26;;;;;;;6.40;2.60;;;;;;;17.24;100.00;100980.91;5041768;28;20552;-65
2022/06/08 01:01:51;;;;;;;10.32;3.33;;;;;;;17.17;100.00;100980.59;5043454;28;20037;-65
2022/06/08 01:04:19;;;;;;;5.32;3.40;;;;;;;17.12;100.00;100975.22;5041456;28;20028;-65
2022/06/08 01:06:51;;;;;;;6.57;3.50;;;;;;;17.06;100.00;100982.03;5039405;28;20134;-65
2022/06/08 01:09:25;;;;;;;8.57;4.35;;;;;;;17.07;100.00;100981.72;5040393;28;20040;-65
2022/06/08 01:11:53;;;;;;;7.43;4.38;;;;;;;17.02;100.00;100981.88;5042541;28;20470;-66
2022/06/08 01:14:19;;;;;;;9.55;4.63;;;;;;;17.13;100.00;100982.38;5039709;28;20032;-64
2022/06/08 01:16:57;;;;;;;11.93;5.13;;;;;;;17.14;100.00;100972.13;5043520;28;20039;-65
2022/06/08 01:19:22;;;;;;;12.30;5.90;;;;;;;17.07;100.00;100972.59;5043019;28;20124;-65
2022/06/08 01:21:57;;;;;;;10.93;5.60;;;;;;;17.14;100.00;100966.59;5040899;28;20121;-65
2022/06/08 01:24:23;;;;;;;13.15;6.47;;;;;;;17.16;100.00;100962.31;5039743;28;20033;-65
2022/06/08 01:27:24;;;;;;;14.55;7.05;;;;;;;16.99;100.00;100954.00;5042934;28;20032;-64
2022/06/08 01:30:22;;;;;;;13.48;7.80;;;;;;;17.00;100.00;100956.44;5040285;28;20333;-65
2022/06/08 01:33:18;;;;;;;12.80;7.80;;;;;;;17.00;100.00;100945.34;5043431;28;20033;-64
2022/06/08 01:36:01;;;;;;;12.15;7.63;;;;;;;17.03;100.00;100952.22;5043890;28;20033;-64
2022/06/08 01:38:49;;;;;;;13.15;8.07;;;;;;;17.01;100.00;100946.19;5040088;28;20510;-64
2022/06/08 01:41:14;;;;;;;12.65;8.30;;;;;;;16.90;100.00;100937.34;5042841;28;20083;-65
2022/06/08 01:43:58;;;;;;;12.77;8.73;;;;;;;16.86;100.00;100942.72;5035842;28;20054;-64
2022/06/08 01:46:26;;;;;;;13.50;8.65;;;;;;;16.82;100.00;100935.34;5043120;28;20040;-64
2022/06/08 01:49:27;;;;;;;15.65;9.02;;;;;;;16.81;100.00;100923.47;5042939;28;20037;-65
2022/06/08 01:52:19;;;;;;;14.02;9.77;;;;;;;16.80;100.00;100915.50;5041066;28;20082;-65
2022/06/08 01:55:02;;;;;;;13.73;9.98;;;;;;;16.76;100.00;100912.56;5039021;28;20148;-66
2022/06/08 01:57:46;;;;;;;15.40;9.48;;;;;;;16.72;100.00;100908.78;5049068;28;20141;-65
2022/06/08 02:00:21;;;;;;;17.08;11.77;;;;;;;16.68;100.00;100910.59;5063861;28;20036;-65
2022/06/08 02:02:55;;;;;;;15.80;10.68;;;;;;;16.66;100.00;100901.75;5061617;28;20040;-65
2022/06/08 02:05:40;;;;;;;14.73;10.73;;;;;;;16.56;100.00;100899.31;5059233;28;20024;-64
2022/06/08 02:08:34;;;;;;;16.63;11.68;;;;;;;16.53;100.00;100900.78;5061023;28;20025;-64
2022/06/08 02:11:13;;;;;;;15.43;10.93;;;;;;;16.49;100.00;100891.47;5063081;28;20551;-64
2022/06/08 02:13:48;;;;;;;17.75;10.93;;;;;;;16.48;100.00;100889.84;5059261;28;20807;-65
2022/06/08 02:16:35;;;;;;;13.57;11.30;;;;;;;16.42;100.00;100886.41;5062733;28;20063;-65
2022/06/08 02:19:06;;;;;;;15.65;11.35;;;;;;;16.51;100.00;100887.25;5063388;28;20063;-64
2022/06/08 02:21:50;;;;;;;16.33;11.48;;;;;;;16.51;100.00;100884.50;5060188;28;20024;-65
2022/06/08 02:24:31;;;;;;;15.38;11.00;;;;;;;16.45;100.00;100885.78;5062094;28;20016;-65
2022/06/08 02:27:04;;;;;;;14.07;11.02;;;;;;;16.42;100.00;100877.28;5060339;28;20032;-64
2022/06/08 02:29:37;;;;;;;14.77;11.63;;;;;;;16.44;100.00;100873.06;5063181;28;20099;-64
2022/06/08 02:34:28;;;;;;;;;;;;;;;16.26;100.00;100876.91;5065989;28;20027;-64
2022/06/08 02:34:58;;;;;;;12.85;10.35;;;;;;;16.29;100.00;100870.75;5067077;28;19912;-65
2022/06/08 02:37:30;;;;;;;16.05;11.52;;;;;;;16.30;100.00;100867.66;5063928;28;20099;-63
2022/06/08 02:40:05;;;;;;;12.85;10.20;;;;;;;16.33;100.00;100866.19;5063665;28;20107;-65
2022/06/08 02:42:39;;;;;;;13.07;10.82;;;;;;;16.35;100.00;100867.50;5060548;28;20052;-65
2022/06/08 02:45:11;;;;;;;14.35;11.40;;;;;;;16.35;100.00;100870.28;5067326;28;20028;-65
2022/06/08 02:47:39;;;;;;;12.73;9.25;;;;;;;16.33;100.00;100866.19;5064775;28;20024;-64
2022/06/08 02:50:18;;;;;;;12.35;9.88;;;;;;;16.30;100.00;100861.31;5065179;28;20101;-65
2022/06/08 02:52:46;;;;;;;11.73;9.20;;;;;;;16.28;100.00;100861.63;5063084;28;20121;-65
2022/06/08 02:55:36;;;;;;;12.05;9.10;;;;;;;16.25;100.00;100855.91;5063843;28;20408;-65
2022/06/08 02:58:09;;;;;;;12.73;9.82;;;;;;;16.32;100.00;100857.06;5064100;28;20045;-65
2022/06/08 03:00:45;;;;;;;12.43;9.70;;;;;;;16.36;100.00;100857.25;5063302;28;20182;-64
2022/06/08 03:03:22;;;;;;;14.15;9.70;;;;;;;16.35;100.00;100855.63;5064376;28;20479;-64
2022/06/08 03:06:00;;;;;;;13.40;9.48;;;;;;;16.34;100.00;100846.50;5063232;28;20267;-64
2022/06/08 03:08:39;;;;;;;12.07;9.27;;;;;;;16.39;100.00;100853.84;5063097;28;20021;-65
2022/06/08 03:11:07;;;;;;;15.38;9.32;;;;;;;16.38;100.00;100856.94;5066674;28;20016;-65
2022/06/08 03:13:40;;;;;;;12.30;9.30;;;;;;;16.35;100.00;100850.09;5063074;28;20024;-65
2022/06/08 03:16:07;;;;;;;;;;;;;;;16.33;100.00;100850.41;5067009;28;20024;-66
2022/06/08 03:18:34;;;;;;;11.85;8.52;;;;;;;16.45;100.00;100847.03;5062931;28;19912;-65
2022/06/08 03:21:02;;;;;;;12.68;8.40;;;;;;;16.44;100.00;100839.84;5066093;28;20032;-66
2022/06/08 03:23:31;;;;;;;9.57;7.13;;;;;;;16.51;100.00;100839.38;5061202;28;20037;-65
2022/06/08 03:25:56;;;;;;;9.45;7.20;;;;;;;16.58;100.00;100831.44;5047753;28;20123;-63
2022/06/08 03:28:21;;;;;;;12.20;7.30;;;;;;;16.64;100.00;100827.38;5062081;28;20115;-65
2022/06/08 03:30:47;;;;;;;10.35;6.82;;;;;;;16.61;100.00;100827.19;5064063;28;20810;-64
2022/06/08 03:33:14;;;;;;;8.35;6.18;;;;;;;16.67;100.00;100825.91;5065488;28;20032;-64
2022/06/08 03:35:40;;;;;;;8.95;5.85;;;;;;;16.64;100.00;100821.84;5063736;28;20473;-65
2022/06/08 03:38:06;;;;;;;7.50;5.38;;;;;;;16.69;100.00;100826.38;5063688;28;20021;-64
2022/06/08 03:40:32;;;;;;;7.05;5.30;;;;;;;16.71;100.00;100829.66;5062079;28;20128;-65
2022/06/08 03:42:57;;;;;;;7.10;5.13;;;;;;;16.69;100.00;100823.63;5060970;28;20094;-65
2022/06/08 03:45:26;;;;;;;10.40;6.05;;;;;;;16.71;100.00;100821.34;5065325;28;20028;-65
2022/06/08 03:47:53;;;;;;;10.02;5.90;;;;;;;16.66;100.00;100821.50;5061593;28;20035;-66
2022/06/08 03:50:23;;;;;;;7.93;5.63;;;;;;;16.66;100.00;100819.56;5064497;28;20028;-65
2022/06/08 03:53:02;;;;;;;7.80;5.70;;;;;;;16.68;100.00;100820.03;5061267;28;20055;-65
2022/06/08 03:55:30;;;;;;;6.20;5.40;;;;;;;16.69;100.00;100820.84;5062470;28;20229;-67
2022/06/08 03:57:57;;;;;;;7.28;5.55;;;;;;;16.72;100.00;100821.03;5062054;28;20024;-65
2022/06/08 04:00:24;;;;;;;7.57;5.32;;;;;;;16.75;100.00;100816.78;5063110;28;20119;-65
2022/06/08 04:02:50;;;;;;;8.60;5.63;;;;;;;16.80;100.00;100822.16;5062179;28;20421;-65
2022/06/08 04:05:16;;;;;;;6.68;4.80;;;;;;;16.85;100.00;100819.25;5064803;28;20581;-65
2022/06/08 04:07:42;;;;;;;6.13;5.45;;;;;;;16.94;100.00;100807.38;5042579;28;20058;-65
2022/06/08 04:10:09;;;;;;;6.93;5.03;;;;;;;16.98;100.00;100808.34;5063343;28;20040;-64
2022/06/08 04:12:34;;;;;;;7.03;4.70;;;;;;;16.90;100.00;100808.03;5059786;28;20538;-64
2022/06/08 04:15:00;;;;;;;6.65;4.30;;;;;;;16.99;100.00;100810.81;5065757;28;20082;-66
2022/06/08 04:17:26;;;;;;;5.32;4.40;;;;;;;16.97;100.00;100807.56;5065109;28;20083;-66
2022/06/08 04:19:51;;;;;;;7.20;3.63;;;;;;;17.00;100.00;100811.59;5061742;28;20422;-65
2022/06/08 04:22:20;;;;;;;4.93;3.38;;;;;;;17.05;100.00;100805.91;5063466;28;20221;-65
2022/06/08 04:24:46;;;;;;;5.97;3.67;;;;;;;17.09;100.00;100809.66;5057744;28;20036;-65
2022/06/08 04:27:12;;;;;;;6.35;4.18;;;;;;;17.17;100.00;100811.59;5063126;28;20441;-65
2022/06/08 04:29:38;;;;;;;5.90;3.33;;;;;;;17.21;100.00;100806.22;5064294;28;20442;-66
2022/06/08 04:32:09;;;;;;;5.78;3.28;;;;;;;17.20;100.00;100799.03;5065253;28;20037;-65
2022/06/08 04:34:37;;;;;;;6.10;3.78;;;;;;;17.26;100.00;100801.31;5061911;28;20040;-65
2022/06/08 04:37:03;;;;;;;3.55;3.13;;;;;;;17.30;100.00;100803.44;5061574;28;20028;-64
2022/06/08 04:39:28;;;;;;;4.13;3.20;;;;;;;17.25;100.00;100805.25;5059963;28;20092;-65
2022/06/08 04:41:55;;;;;;;5.78;3.40;;;;;;;17.32;100.00;100801.97;5060005;28;20079;-64
2022/06/08 04:44:21;;;;;;;6.03;3.53;;;;;;;17.37;100.00;100803.75;5026646;28;20029;-66
2022/06/08 04:46:47;;;;;;;4.32;3.20;;;;;;;17.32;100.00;100803.94;5061786;28;20040;-66
2022/06/08 04:49:13;;;;;;;6.10;3.22;;;;;;;17.27;100.00;100804.91;5043526;28;20028;-65
2022/06/08 04:51:39;;;;;;;7.47;3.60;;;;;;;17.36;100.00;100808.47;5059486;28;20032;-65
2022/06/08 04:54:04;;;;;;;4.90;3.17;;;;;;;17.43;100.00;100802.41;5059659;28;20106;-64
2022/06/08 04:56:30;;;;;;;5.05;3.60;;;;;;;17.44;100.00;100806.81;5044494;28;20035;-64
2022/06/08 04:58:55;;;;;;;4.47;2.55;;;;;;;17.47;100.00;100797.06;5055796;28;20573;-64
2022/06/08 05:01:22;;;;;;;3.50;2.80;;;;;;;17.52;100.00;100791.31;5063637;28;20062;-65
2022/06/08 05:03:48;;;;;;;4.90;3.20;;;;;;;17.55;100.00;100791.47;5059662;28;20469;-65
2022/06/08 05:06:13;;;;;;;5.63;3.10;;;;;;;17.66;100.00;100793.88;5063050;28;20350;-65
2022/06/08 05:08:40;;;;;;;6.68;3.22;;;;;;;17.66;100.00;100780.84;5040246;28;20107;-65
2022/06/08 05:11:07;;;;;;;6.68;3.08;;;;;;;17.63;100.00;100779.53;5028790;28;20086;-67
2022/06/08 05:13:36;;;;;;;4.80;2.85;;;;;;;17.70;100.00;100773.47;5041447;28;20083;-65
2022/06/08 05:16:04;;;;;;;7.53;3.38;;;;;;;17.71;100.00;100771.50;5060610;28;20028;-65
2022/06/08 05:18:30;;;;;;;4.35;3.00;;;;;;;17.72;100.00;100775.94;5059700;28;20479;-64
2022/06/08 05:20:57;;;;;;;4.03;3.50;;;;;;;17.79;100.00;100774.28;5060717;28;20498;-65
2022/06/08 05:23:34;;;;;;;4.68;3.33;;;;;;;17.81;100.00;100780.28;5042498;28;20454;-66
2022/06/08 05:26:02;;;;;;;4.60;3.42;;;;;;;17.89;100.00;100777.81;5061818;28;20299;-71
2022/06/08 05:28:28;;;;;;;6.03;3.78;;;;;;;17.83;100.00;100771.63;5044155;28;20536;-71
2022/06/08 05:30:56;;;;;;;6.78;3.28;;;;;;;17.76;100.00;100774.13;5063422;28;20029;-72
2022/06/08 05:33:23;;;;;;;5.95;2.80;;;;;;;17.97;100.00;100769.50;5062994;28;20044;-71
2022/06/08 05:35:48;;;;;;;5.90;3.63;;;;;;;18.02;100.00;100762.09;5060625;28;20437;-71
2022/06/08 05:38:14;;;;;;;5.65;3.50;;;;;;;17.98;100.00;100768.31;5043093;28;20463;-71
2022/06/08 05:40:40;;;;;;;5.28;3.28;;;;;;;18.11;100.00;100771.22;5058606;28;20107;-71
2022/06/08 05:43:08;;;;;;;5.45;3.55;;;;;;;18.10;100.00;100764.03;5057824;28;20123;-71
2022/06/08 05:45:34;;;;;;;5.13;3.38;;;;;;;18.25;100.00;100752.34;5062464;28;20028;-71
2022/06/08 05:48:01;;;;;;;5.45;3.05;;;;;;;18.44;100.00;100751.06;5059050;28;20399;-71
2022/06/08 05:50:28;;;;;;;7.30;3.40;;;;;;;18.37;100.00;100746.88;5062613;28;20016;-72
2022/06/08 05:52:53;;;;;;;6.18;3.70;;;;;;;18.62;100.00;100754.53;5060441;28;20029;-70
2022/06/08 05:55:21;;;;;;;5.75;3.58;;;;;;;18.70;100.00;100748.09;5038919;28;20043;-71
2022/06/08 05:57:47;;;;;;;5.28;3.40;;;;;;;18.76;100.00;100745.91;5036302;28;20559;-71
2022/06/08 06:00:16;;;;;;;6.07;2.92;;;;;;;18.74;100.00;100744.31;5040266;28;20114;-71
2022/06/08 06:02:43;;;;;;;6.43;3.40;;;;;;;18.82;100.00;100739.00;5058912;28;20367;-71
2022/06/08 06:05:11;;;;;;;6.13;3.38;;;;;;;18.85;100.00;100732.81;5045971;28;20032;-71
2022/06/08 06:07:36;;;;;;;6.30;3.80;;;;;;;18.89;100.00;100729.00;5067931;28;20024;-72
2022/06/08 06:10:03;;;;;;;4.40;3.10;;;;;;;18.91;100.00;100725.88;5058737;28;20396;-71
2022/06/08 06:12:32;;;;;;;3.40;3.10;;;;;;;18.97;100.00;100718.97;5047431;28;20028;-70
2022/06/08 06:15:01;;;;;;;5.13;3.30;;;;;;;18.88;100.00;100715.47;5061960;28;20029;-71
2022/06/08 06:17:26;;;;;;;5.43;3.55;;;;;;;18.87;100.00;100720.22;5065787;28;20024;-70
2022/06/08 06:19:52;;;;;;;5.65;3.40;;;;;;;19.05;100.00;100717.25;5063628;28;20031;-71
2022/06/08 06:22:17;;;;;;;5.40;3.35;;;;;;;19.18;100.00;100718.88;5048661;28;20024;-72
2022/06/08 06:24:49;;;;;;;6.18;3.40;;;;;;;19.09;100.00;100719.00;5042380;28;20029;-72
2022/06/08 06:27:14;;;;;;;7.22;3.75;;;;;;;19.22;100.00;100713.47;5064153;28;20209;-71
2022/06/08 06:29:39;;;;;;;3.85;3.25;;;;;;;19.38;100.00;100711.66;5065770;28;20026;-71
2022/06/08 06:32:10;;;;;;;4.95;3.75;;;;;;;19.50;100.00;100707.28;5065513;28;20044;-70
2022/06/08 06:34:37;;;;;;;5.50;3.40;;;;;;;19.72;100.00;100711.56;5066298;28;20036;-71
2022/06/08 06:37:02;;;;;;;7.50;3.58;;;;;;;19.79;100.00;100709.84;5062795;28;20420;-71
2022/06/08 06:39:27;;;;;;;5.28;3.25;;;;;;;19.76;100.00;100712.53;5043430;28;20350;-71
2022/06/08 06:41:55;;;;;;;5.07;3.55;;;;;;;19.61;100.00;100712.03;5061580;28;20051;-71
2022/06/08 06:44:21;;;;;;;7.95;3.30;;;;;;;19.49;100.00;100712.00;5064380;28;20028;-72
2022/06/08 06:46:48;;;;;;;6.10;3.17;;;;;;;19.69;100.00;100710.28;5065285;28;20548;-71
2022/06/08 06:49:13;;;;;;;4.40;2.95;;;;;;;19.82;100.00;100711.94;5047865;28;20105;-72
2022/06/08 06:51:39;;;;;;;4.68;3.08;;;;;;;19.90;100.00;100703.81;5064870;28;20036;-71
2022/06/08 06:54:07;;;;;;;5.55;3.00;;;;;;;20.01;100.00;100708.56;5058359;28;20131;-71
2022/06/08 06:56:33;;;;;;;4.95;2.90;;;;;;;20.15;100.00;100708.19;5063029;28;20028;-71
2022/06/08 06:58:59;;;;;;;5.28;3.47;;;;;;;20.28;100.00;100692.25;5061952;28;20401;-69
2022/06/08 07:01:25;;;;;;;4.43;2.97;;;;;;;20.24;100.00;100702.50;5065492;28;20028;-70
2022/06/08 07:03:51;;;;;;;4.57;2.88;;;;;;;20.29;100.00;100698.66;5062244;28;20441;-70
2022/06/08 07:06:16;;;;;;;3.72;2.80;;;;;;;20.39;100.00;100696.16;5022404;28;20036;-70
2022/06/08 07:08:42;;;;;;;4.45;2.90;;;;;;;20.48;100.00;100696.06;5024560;28;20029;-71
2022/06/08 07:13:54;;;;;;;5.22;2.83;;;;;;;20.70;100.00;100685.53;5041649;28;20210;-71
2022/06/08 07:16:20;;;;;;;4.90;2.85;;;;;;;20.66;100.00;100685.44;5043939;28;20166;-71
2022/06/08 07:18:45;;;;;;;4.65;3.08;;;;;;;20.87;100.00;100685.25;5025835;28;20039;-70
2022/06/08 07:21:11;;;;;;;3.40;3.10;;;;;;;20.75;100.00;100688.06;5042232;28;20055;-71
2022/06/08 07:23:39;;;;;;;5.85;3.08;;;;;;;20.84;100.00;100679.53;5041360;28;20376;-71
2022/06/08 07:26:08;;;;;;;6.05;3.58;;;;;;;20.95;100.00;100675.06;5009252;28;20118;-71
2022/06/08 07:28:36;;;;;;;5.13;3.03;;;;;;;20.77;100.00;100676.56;5025561;28;20406;-71
2022/06/08 07:31:02;;;;;;;7.05;2.92;;;;;;;20.85;100.00;100670.84;5026058;28;20386;-71
2022/06/08 07:33:27;;;;;;;4.93;3.10;;;;;;;20.90;100.00;100666.97;5045288;28;20075;-70
2022/06/08 07:35:54;;;;;;;6.88;3.47;;;;;;;20.78;100.00;100667.06;5043275;28;20506;-70
2022/06/08 07:38:20;;;;;;;6.40;3.85;;;;;;;20.91;100.00;100669.41;5044441;28;20438;-70
2022/06/08 07:40:45;;;;;;;7.03;3.85;;;;;;;21.03;100.00;100674.09;5038286;28;20033;-72
2022/06/08 07:43:11;;;;;;;6.22;3.75;;;;;;;21.14;100.00;100671.59;5042009;28;20489;-70
2022/06/08 07:45:36;;;;;;;6.93;4.07;;;;;;;21.02;100.00;100668.88;5025587;28;20025;-69
2022/06/08 07:50:46;;;;;;;8.25;3.85;;;;;;;20.97;100.00;100669.94;5065437;28;20390;-70
2022/06/08 07:53:11;;;;;;;6.75;4.15;;;;;;;21.26;100.00;100674.31;5028081;28;20032;-70
2022/06/08 07:55:37;;;;;;;5.60;4.13;;;;;;;21.37;100.00;100674.59;5041986;28;20078;-71
2022/06/08 07:58:03;;;;;;;7.90;4.50;;;;;;;21.48;100.00;100674.88;5028586;28;20454;-70
2022/06/08 08:00:30;;;;;;;6.50;4.22;;;;;;;21.34;100.00;100668.91;5064876;28;20041;-71
2022/06/08 08:02:56;;;;;;;8.20;4.70;;;;;;;21.21;100.00;100670.97;5062607;28;20035;-70
2022/06/08 08:05:22;;;;;;;7.28;5.68;;;;;;;21.27;100.00;100672.34;5047184;28;20394;-69
2022/06/08 08:07:49;;;;;;;9.38;5.80;;;;;;;21.17;100.00;100675.63;5063140;28;20029;-70
2022/06/08 08:10:18;;;;;;;8.05;5.15;;;;;;;21.26;100.00;100667.91;5057608;28;20348;-70
2022/06/08 08:12:44;;;;;;;8.70;5.45;;;;;;;21.08;100.00;100670.25;5062364;28;20654;-70
2022/06/08 08:15:10;;;;;;;7.00;5.32;;;;;;;20.96;100.00;100670.34;5066149;28;20145;-69
2022/06/08 08:17:36;;;;;;;5.82;4.95;;;;;;;20.96;100.00;100670.34;5063105;28;20119;-70
2022/06/08 08:20:04;;;;;;;5.60;4.43;;;;;;;20.96;100.00;100668.34;5061442;28;20034;-70
2022/06/08 08:22:30;;;;;;;7.78;5.05;;;;;;;20.79;100.00;100675.06;5063098;28;20028;-70
2022/06/08 08:24:56;;;;;;;10.10;5.60;;;;;;;20.60;100.00;100664.56;5040509;28;20494;-70
2022/06/08 08:27:22;;;;;;;6.75;5.95;;;;;;;20.73;100.00;100662.56;5045176;28;20032;-70
2022/06/08 08:29:48;;;;;;;7.18;5.15;;;;;;;21.07;100.00;100665.81;5062958;28;20082;-70
2022/06/08 08:32:13;;;;;;;7.57;5.75;;;;;;;21.30;100.00;100666.06;5061042;28;20552;-70
2022/06/08 08:34:39;;;;;;;9.00;6.22;;;;;;;21.39;100.00;100660.28;5041252;28;20507;-70
2022/06/08 08:37:04;;;;;;;8.68;6.38;;;;;;;21.22;100.00;100661.47;5040423;28;20076;-71
2022/06/08 08:39:30;;;;;;;8.75;6.78;;;;;;;21.39;100.00;100661.09;5038542;28;20127;-70
2022/06/08 08:45:14;;;;;;;10.02;7.20;;;;;;;21.24;100.00;100657.13;5054270;28;20058;-70
2022/06/08 08:48:04;;;;;;;7.85;6.90;;;;;;;21.17;100.00;100656.97;5040972;28;20044;-72
2022/06/08 08:50:46;;;;;;;8.93;6.97;;;;;;;21.46;100.00;100650.13;5064023;28;20032;-72
2022/06/08 08:53:12;;;;;;;10.15;7.80;;;;;;;21.38;100.00;100653.06;5062210;28;20031;-71
2022/06/08 08:56:03;;;;;;;9.73;6.72;;;;;;;21.37;100.00;100643.09;5065597;28;20036;-70
2022/06/08 08:58:39;;;;;;;9.70;7.32;;;;;;;21.48;100.00;100647.00;5060823;28;20047;-70
2022/06/08 09:01:12;;;;;;;10.00;6.88;;;;;;;21.44;100.00;100651.63;5062032;28;20047;-70
2022/06/08 09:03:48;;;;;;;8.27;7.15;;;;;;;21.53;100.00;100648.69;5062169;28;20419;-70
2022/06/08 09:06:17;;;;;;;9.73;8.18;;;;;;;21.35;100.00;100653.78;5061396;28;20040;-71
2022/06/08 09:08:44;;;;;;;9.27;8.32;;;;;;;21.22;100.00;100645.53;5057839;28;20474;-70
2022/06/08 09:11:24;;;;;;;10.02;7.88;;;;;;;20.88;100.00;100644.25;5059698;28;20067;-71
2022/06/08 09:14:13;;;;;;;9.98;8.25;;;;;;;20.76;100.00;100636.78;5061346;28;20024;-69
2022/06/08 09:16:50;;;;;;;9.80;8.15;;;;;;;20.39;100.00;100648.03;5061006;28;20429;-70
2022/06/08 09:19:41;;;;;;;9.55;7.63;;;;;;;20.13;100.00;100663.19;5062140;28;20025;-69
2022/06/08 09:22:06;;;;;;;10.60;8.25;;;;;;;20.04;100.00;100648.63;5059033;28;20097;-72
2022/06/08 09:24:34;;;;;;;11.65;9.55;;;;;;;20.02;100.00;100651.75;5055124;28;20021;-71
2022/06/08 09:27:34;;;;;;;12.95;9.48;;;;;;;19.86;100.00;100650.84;5058951;28;20032;-71
2022/06/08 09:30:05;;;;;;;11.20;9.25;;;;;;;19.97;100.00;100654.78;5060390;28;20103;-71
2022/06/08 09:32:44;;;;;;;10.77;9.07;;;;;;;19.94;100.00;100651.84;5062604;28;20490;-71
2022/06/08 09:35:19;;;;;;;13.68;10.20;;;;;;;19.97;100.00;100651.16;5059618;28;20047;-71
2022/06/08 09:37:46;;;;;;;14.63;10.90;;;;;;;20.00;100.00;100658.81;5062260;28;20423;-71
2022/06/08 09:40:37;;;;;;;15.23;10.75;;;;;;;20.04;100.00;100651.41;5054609;28;20036;-72
2022/06/08 09:43:40;;;;;;;13.77;12.20;;;;;;;19.72;100.00;100655.94;5061672;28;20042;-72
2022/06/08 09:46:19;;;;;;;12.95;11.60;;;;;;;19.54;100.00;100647.81;5065598;28;20116;-73
2022/06/08 09:51:49;;;;;;;9.82;8.02;;;;;;;19.45;100.00;100659.06;5066260;28;20027;-71
2022/06/08 09:54:41;;;;;;;9.05;5.75;;;;;;;19.03;100.00;100658.44;5063563;28;20021;-72
2022/06/08 09:57:33;;;;;;;6.68;5.25;;;;;;;18.98;100.00;100665.00;5063821;28;20261;-72
2022/06/08 10:00:02;;;;;;;6.60;5.78;;;;;;;19.04;100.00;100669.19;5065794;28;20038;-72
2022/06/08 10:02:47;;;;;;;7.30;5.05;;;;;;;18.67;100.00;100668.25;5061703;28;20059;-72
2022/06/08 10:05:29;;;;;;;7.82;5.95;;;;;;;18.92;100.00;100671.94;5044903;28;20122;-72
2022/06/08 10:07:57;;;;;;;9.23;5.90;;;;;;;18.58;100.00;100679.44;5048661;28;20048;-73
2022/06/08 10:10:29;;;;;;;8.45;6.82;;;;;;;18.77;100.00;100675.34;5040803;28;20326;-71
2022/06/08 10:12:58;;;;;;;10.43;7.15;;;;;;;18.72;100.00;100671.59;5046845;28;20320;-71
2022/06/08 10:15:42;;;;;;;11.07;6.85;;;;;;;18.58;100.00;100678.63;5063552;28;20064;-71
2022/06/08 10:18:27;;;;;;;8.52;5.60;;;;;;;18.62;100.00;100674.00;5051715;28;20561;-73
2022/06/08 10:21:18;;;;;;;8.63;5.70;;;;;;;18.15;100.00;100673.09;5045885;28;20037;-72
2022/06/08 10:23:56;;;;;;;8.13;6.10;;;;;;;18.19;100.00;100676.81;5038478;28;20127;-72
2022/06/08 10:26:48;;;;;;;8.35;6.40;;;;;;;18.25;100.00;100677.44;5041019;28;20021;-72
2022/06/08 10:29:23;;;;;;;9.40;6.28;;;;;;;18.14;100.00;100688.09;5042913;28;20033;-72
2022/06/08 10:32:05;;;;;;;8.75;5.22;;;;;;;18.09;100.00;100690.28;5046826;28;20545;-71
2022/06/08 10:34:33;;;;;;;6.17;4.27;;;;;;;18.29;100.00;100692.25;5064132;28;20055;-73
2022/06/08 10:37:14;;;;;;;7.90;4.10;;;;;;;18.22;100.00;100694.75;5064616;28;20055;-73
2022/06/08 10:39:42;;;;;;;10.15;4.20;;;;;;;17.99;100.00;100694.25;5063124;28;20020;-72
2022/06/08 10:45:23;;;;;;;7.70;4.32;;;;;;;18.15;100.00;100694.47;5065350;28;20517;-72
2022/06/08 10:48:03;;;;;;;6.72;3.58;;;;;;;17.93;100.00;100688.09;5064567;28;20036;-72
2022/06/08 10:50:34;;;;;;;7.00;3.28;;;;;;;17.73;100.00;100692.41;5061662;28;20284;-67
2022/06/08 10:56:32;;;;;;;6.97;3.25;;;;;;;17.78;100.00;100680.31;5036975;28;20085;-67
2022/06/08 10:59:07;;;;;;;6.80;2.80;;;;;;;17.57;100.00;100681.06;5035550;28;20279;-67
2022/06/08 11:01:35;;;;;;;3.72;2.25;;;;;;;17.16;100.00;100679.78;5037573;28;20039;-66
2022/06/08 11:04:02;;;;;;;6.55;2.40;;;;;;;17.39;100.00;100677.56;5039129;28;20102;-67
2022/06/08 11:06:57;;;;;;;7.28;2.42;;;;;;;17.51;100.00;100667.72;5037619;28;20471;-67
2022/06/08 11:09:34;;;;;;;4.15;2.33;;;;;;;17.57;100.00;100669.97;5032075;28;20040;-66
2022/06/08 11:12:12;;;;;;;7.15;2.40;;;;;;;17.74;100.00;100674.66;5034593;28;20032;-67
2022/06/08 11:14:43;;;;;;;3.90;2.33;;;;;;;17.77;100.00;100673.16;5037128;28;20454;-67
2022/06/08 11:17:35;;;;;;;4.00;2.33;;;;;;;17.65;100.00;100668.31;5034519;28;20081;-68
2022/06/08 11:20:12;;;;;;;6.40;2.97;;;;;;;17.66;100.00;100663.59;5040850;28;20495;-67
2022/06/08 11:22:49;;;;;;;6.30;2.75;;;;;;;17.68;100.00;100672.41;5042543;28;20039;-68
2022/06/08 11:25:26;;;;;;;4.93;2.95;;;;;;;17.74;100.00;100679.34;5039296;28;20055;-69
2022/06/08 11:28:29;;;;;;;7.15;2.67;;;;;;;17.88;100.00;100668.06;5061649;28;20024;-67
2022/06/08 11:30:57;;;;;;;6.70;3.00;;;;;;;17.58;100.00;100660.53;5066556;28;20036;-67
2022/06/08 11:33:43;;;;;;;7.57;2.80;;;;;;;17.66;100.00;100660.81;5064210;28;20119;-67
2022/06/08 11:36:50;;;;;;;5.80;2.58;;;;;;;17.67;100.00;100659.66;5065786;28;20040;-66
2022/06/08 11:39:40;;;;;;;8.93;3.35;;;;;;;17.89;100.00;100653.88;5038737;28;20056;-66
2022/06/08 11:42:35;;;;;;;5.90;3.00;;;;;;;18.06;100.00;100652.13;5059271;28;20427;-67
2022/06/08 11:45:19;;;;;;;8.27;3.35;;;;;;;18.11;100.00;100646.38;5046171;28;20249;-68
2022/06/08 11:48:08;;;;;;;6.13;3.20;;;;;;;18.05;100.00;100645.75;5046530;28;20093;-67
2022/06/08 11:50:54;;;;;;;6.97;2.80;;;;;;;18.34;100.00;100644.06;5042295;28;20511;-68
2022/06/08 11:53:36;;;;;;;6.30;2.65;;;;;;;18.14;100.00;100634.59;5044311;28;20056;-68